sensor_id;sensor_type;location;lat;lon;timestamp;temperature;humidity
5461;DHT22;2753;49.196;8.286;2023-05-10T00:00:47;15.60;99.90
5461;DHT22;2753;49.196;8.286;2023-05-10T00:03:12;15.60;99.90
5461;DHT22;2753;49.196;8.286;2023-05-10T00:05:38;15.50;99.90
5461;DHT22;2753;49.196;8.286;2023-05-10T00:08:04;15.50;99.90
5461;DHT22;2753;49.196;8.286;2023-05-10T00:10:30;15.50;99.90
5461;DHT22;2753;49.196;8.286;2023-05-10T00:12:56;15.50;99.90
5461;DHT22;2753;49.196;8.286;2023-05-10T00:15:21;15.50;99.90
5461;DHT22;2753;49.196;8.286;2023-05-10T00:17:47;15.50;99.90
5461;DHT22;2753;49.196;8.286;2023-05-10T00:20:13;15.50;99.90
5461;DHT22;2753;49.196;8.286;2023-05-10T00:22:38;15.40;99.90
5461;DHT22;2753;49.196;8.286;2023-05-10T00:25:04;15.40;99.90
5461;DHT22;2753;49.196;8.286;2023-05-10T00:27:30;15.40;99.90
5461;DHT22;2753;49.196;8.286;2023-05-10T00:29:56;15.40;99.90
5461;DHT22;2753;49.196;8.286;2023-05-10T00:32:22;15.40;99.90
5461;DHT22;2753;49.196;8.286;2023-05-10T00:34:47;15.40;99.90
5461;DHT22;2753;49.196;8.286;2023-05-10T00:37:13;15.40;99.90
5461;DHT22;2753;49.196;8.286;2023-05-10T00:39:38;15.30;99.90
5461;DHT22;2753;49.196;8.286;2023-05-10T00:42:04;15.30;99.90
5461;DHT22;2753;49.196;8.286;2023-05-10T00:44:30;15.30;99.90
5461;DHT22;2753;49.196;8.286;2023-05-10T00:46:56;15.30;99.90
5461;DHT22;2753;49.196;8.286;2023-05-10T00:49:22;15.30;99.90
5461;DHT22;2753;49.196;8.286;2023-05-10T00:51:48;15.30;99.90
5461;DHT22;2753;49.196;8.286;2023-05-10T00:54:14;15.30;99.90
5461;DHT22;2753;49.196;8.286;2023-05-10T00:56:41;15.40;99.90
5461;DHT22;2753;49.196;8.286;2023-05-10T00:59:08;15.30;99.90
5461;DHT22;2753;49.196;8.286;2023-05-10T01:01:35;15.30;99.90
5461;DHT22;2753;49.196;8.286;2023-05-10T01:04:02;15.30;99.90
5461;DHT22;2753;49.196;8.286;2023-05-10T01:06:28;15.30;99.90
5461;DHT22;2753;49.196;8.286;2023-05-10T01:08:54;15.30;99.90
5461;DHT22;2753;49.196;8.286;2023-05-10T01:11:21;15.30;99.90
5461;DHT22;2753;49.196;8.286;2023-05-10T01:13:54;15.30;99.90
5461;DHT22;2753;49.196;8.286;2023-05-10T01:16:21;15.30;99.90
5461;DHT22;2753;49.196;8.286;2023-05-10T01:18:48;15.20;99.90
5461;DHT22;2753;49.196;8.286;2023-05-10T01:32:48;15.20;99.90
5461;DHT22;2753;49.196;8.286;2023-05-10T01:43:34;15.20;99.90
5461;DHT22;2753;49.196;8.286;2023-05-10T01:46:07;15.10;99.90
5461;DHT22;2753;49.196;8.286;2023-05-10T01:48:47;15.10;99.90
5461;DHT22;2753;49.196;8.286;2023-05-10T01:51:23;15.00;99.90
5461;DHT22;2753;49.196;8.286;2023-05-10T01:53:54;15.10;99.90
5461;DHT22;2753;49.196;8.286;2023-05-10T01:56:24;15.00;99.90
5461;DHT22;2753;49.196;8.286;2023-05-10T01:58:52;14.90;99.90
5461;DHT22;2753;49.196;8.286;2023-05-10T02:01:20;14.90;99.90
5461;DHT22;2753;49.196;8.286;2023-05-10T02:03:48;15.00;99.90
5461;DHT22;2753;49.196;8.286;2023-05-10T02:06:16;14.90;99.90
5461;DHT22;2753;49.196;8.286;2023-05-10T02:08:44;14.90;99.90
5461;DHT22;2753;49.196;8.286;2023-05-10T02:11:13;14.90;99.90
5461;DHT22;2753;49.196;8.286;2023-05-10T02:13:39;14.80;99.90
5461;DHT22;2753;49.196;8.286;2023-05-10T02:16:07;14.80;99.90
5461;DHT22;2753;49.196;8.286;2023-05-10T02:18:35;14.90;99.90
5461;DHT22;2753;49.196;8.286;2023-05-10T02:21:02;14.90;99.90
5461;DHT22;2753;49.196;8.286;2023-05-10T02:23:28;14.90;99.90
5461;DHT22;2753;49.196;8.286;2023-05-10T02:25:55;14.90;99.90
5461;DHT22;2753;49.196;8.286;2023-05-10T02:28:23;14.90;99.90
5461;DHT22;2753;49.196;8.286;2023-05-10T02:30:51;14.90;99.90
5461;DHT22;2753;49.196;8.286;2023-05-10T02:33:17;15.00;99.90
5461;DHT22;2753;49.196;8.286;2023-05-10T02:35:43;15.00;99.90
5461;DHT22;2753;49.196;8.286;2023-05-10T02:38:10;15.00;99.90
5461;DHT22;2753;49.196;8.286;2023-05-10T02:40:38;15.10;99.90
5461;DHT22;2753;49.196;8.286;2023-05-10T02:43:04;15.10;99.90
5461;DHT22;2753;49.196;8.286;2023-05-10T02:45:32;15.00;99.90
5461;DHT22;2753;49.196;8.286;2023-05-10T02:48:00;15.00;99.90
5461;DHT22;2753;49.196;8.286;2023-05-10T02:50:28;14.90;99.90
5461;DHT22;2753;49.196;8.286;2023-05-10T02:53:00;15.00;99.90
5461;DHT22;2753;49.196;8.286;2023-05-10T02:55:36;15.00;99.90
5461;DHT22;2753;49.196;8.286;2023-05-10T02:58:03;14.90;99.90
5461;DHT22;2753;49.196;8.286;2023-05-10T03:00:29;14.90;99.90
5461;DHT22;2753;49.196;8.286;2023-05-10T03:02:55;14.90;99.90
5461;DHT22;2753;49.196;8.286;2023-05-10T03:05:21;14.90;99.90
5461;DHT22;2753;49.196;8.286;2023-05-10T03:07:47;14.90;99.90
5461;DHT22;2753;49.196;8.286;2023-05-10T03:10:13;14.90;99.90
5461;DHT22;2753;49.196;8.286;2023-05-10T03:12:47;14.90;99.90
5461;DHT22;2753;49.196;8.286;2023-05-10T03:20:43;14.80;99.90
5461;DHT22;2753;49.196;8.286;2023-05-10T03:25:40;14.80;99.90
5461;DHT22;2753;49.196;8.286;2023-05-10T03:28:06;14.80;99.90
5461;DHT22;2753;49.196;8.286;2023-05-10T03:30:33;14.80;99.90
5461;DHT22;2753;49.196;8.286;2023-05-10T03:33:07;14.70;99.90
5461;DHT22;2753;49.196;8.286;2023-05-10T03:35:33;14.80;99.90
5461;DHT22;2753;49.196;8.286;2023-05-10T03:37:58;14.80;99.90
5461;DHT22;2753;49.196;8.286;2023-05-10T03:40:25;14.70;99.90
5461;DHT22;2753;49.196;8.286;2023-05-10T03:42:51;14.70;99.90
5461;DHT22;2753;49.196;8.286;2023-05-10T03:45:17;14.60;99.90
5461;DHT22;2753;49.196;8.286;2023-05-10T03:47:42;14.60;99.90
5461;DHT22;2753;49.196;8.286;2023-05-10T03:50:08;14.60;99.90
5461;DHT22;2753;49.196;8.286;2023-05-10T03:52:35;14.50;99.90
5461;DHT22;2753;49.196;8.286;2023-05-10T03:55:01;14.50;99.90
5461;DHT22;2753;49.196;8.286;2023-05-10T03:57:28;14.50;99.90
5461;DHT22;2753;49.196;8.286;2023-05-10T03:59:54;14.50;99.90
5461;DHT22;2753;49.196;8.286;2023-05-10T04:02:20;14.50;99.90
5461;DHT22;2753;49.196;8.286;2023-05-10T04:04:45;14.50;99.90
5461;DHT22;2753;49.196;8.286;2023-05-10T04:07:11;14.50;99.90
5461;DHT22;2753;49.196;8.286;2023-05-10T04:09:37;14.50;99.90
5461;DHT22;2753;49.196;8.286;2023-05-10T04:12:02;14.40;99.90
5461;DHT22;2753;49.196;8.286;2023-05-10T04:14:28;14.50;99.90
5461;DHT22;2753;49.196;8.286;2023-05-10T04:16:54;14.50;99.90
5461;DHT22;2753;49.196;8.286;2023-05-10T04:19:20;14.50;99.90
5461;DHT22;2753;49.196;8.286;2023-05-10T04:21:46;14.40;99.90
5461;DHT22;2753;49.196;8.286;2023-05-10T04:24:12;14.50;99.90
5461;DHT22;2753;49.196;8.286;2023-05-10T04:26:37;14.40;99.90
5461;DHT22;2753;49.196;8.286;2023-05-10T04:29:03;14.40;99.90
5461;DHT22;2753;49.196;8.286;2023-05-10T04:31:28;14.40;99.90
5461;DHT22;2753;49.196;8.286;2023-05-10T04:33:54;14.40;99.90
5461;DHT22;2753;49.196;8.286;2023-05-10T04:36:20;14.40;99.90
5461;DHT22;2753;49.196;8.286;2023-05-10T04:38:46;14.40;99.90
5461;DHT22;2753;49.196;8.286;2023-05-10T04:41:11;14.40;99.90
5461;DHT22;2753;49.196;8.286;2023-05-10T04:43:38;14.40;99.90
5461;DHT22;2753;49.196;8.286;2023-05-10T04:46:04;14.40;99.90
5461;DHT22;2753;49.196;8.286;2023-05-10T04:48:30;14.40;99.90
5461;DHT22;2753;49.196;8.286;2023-05-10T04:50:56;14.40;99.90
5461;DHT22;2753;49.196;8.286;2023-05-10T04:53:22;14.30;99.90
5461;DHT22;2753;49.196;8.286;2023-05-10T04:55:48;14.40;99.90
5461;DHT22;2753;49.196;8.286;2023-05-10T04:58:14;14.40;99.90
5461;DHT22;2753;49.196;8.286;2023-05-10T05:00:40;14.40;99.90
5461;DHT22;2753;49.196;8.286;2023-05-10T05:03:05;14.40;99.90
5461;DHT22;2753;49.196;8.286;2023-05-10T05:05:31;14.40;99.90
5461;DHT22;2753;49.196;8.286;2023-05-10T05:07:57;14.40;99.90
5461;DHT22;2753;49.196;8.286;2023-05-10T05:10:22;14.40;99.90
5461;DHT22;2753;49.196;8.286;2023-05-10T05:12:48;14.40;99.90
5461;DHT22;2753;49.196;8.286;2023-05-10T05:15:14;14.40;99.90
5461;DHT22;2753;49.196;8.286;2023-05-10T05:17:42;14.30;99.90
5461;DHT22;2753;49.196;8.286;2023-05-10T05:20:08;14.40;99.90
5461;DHT22;2753;49.196;8.286;2023-05-10T05:22:35;14.40;99.90
5461;DHT22;2753;49.196;8.286;2023-05-10T05:25:01;14.40;99.90
5461;DHT22;2753;49.196;8.286;2023-05-10T05:27:28;14.50;99.90
5461;DHT22;2753;49.196;8.286;2023-05-10T05:29:54;14.40;99.90
5461;DHT22;2753;49.196;8.286;2023-05-10T05:32:20;14.40;99.90
5461;DHT22;2753;49.196;8.286;2023-05-10T05:34:46;14.40;99.90
5461;DHT22;2753;49.196;8.286;2023-05-10T05:37:15;14.40;99.90
5461;DHT22;2753;49.196;8.286;2023-05-10T05:39:41;14.40;99.90
5461;DHT22;2753;49.196;8.286;2023-05-10T05:42:11;14.50;99.90
5461;DHT22;2753;49.196;8.286;2023-05-10T05:44:37;14.50;99.90
5461;DHT22;2753;49.196;8.286;2023-05-10T05:47:03;14.50;99.90
5461;DHT22;2753;49.196;8.286;2023-05-10T05:49:30;14.50;99.90
5461;DHT22;2753;49.196;8.286;2023-05-10T05:52:01;14.50;99.90
5461;DHT22;2753;49.196;8.286;2023-05-10T05:54:27;14.50;99.90
5461;DHT22;2753;49.196;8.286;2023-05-10T05:56:57;14.50;99.90
5461;DHT22;2753;49.196;8.286;2023-05-10T05:59:23;14.50;99.90
5461;DHT22;2753;49.196;8.286;2023-05-10T06:01:50;14.50;99.90
5461;DHT22;2753;49.196;8.286;2023-05-10T06:04:16;14.50;99.90
5461;DHT22;2753;49.196;8.286;2023-05-10T06:06:41;14.50;99.90
5461;DHT22;2753;49.196;8.286;2023-05-10T06:09:08;14.60;99.90
5461;DHT22;2753;49.196;8.286;2023-05-10T06:11:35;14.60;99.90
5461;DHT22;2753;49.196;8.286;2023-05-10T06:14:07;14.60;99.90
5461;DHT22;2753;49.196;8.286;2023-05-10T06:17:00;14.60;99.90
5461;DHT22;2753;49.196;8.286;2023-05-10T06:19:29;14.60;99.90
5461;DHT22;2753;49.196;8.286;2023-05-10T06:21:54;14.60;99.90
5461;DHT22;2753;49.196;8.286;2023-05-10T06:24:20;14.70;99.90
5461;DHT22;2753;49.196;8.286;2023-05-10T06:26:47;14.70;99.90
5461;DHT22;2753;49.196;8.286;2023-05-10T06:29:15;14.70;99.90
5461;DHT22;2753;49.196;8.286;2023-05-10T06:31:40;14.70;99.90
5461;DHT22;2753;49.196;8.286;2023-05-10T06:34:06;14.70;99.90
5461;DHT22;2753;49.196;8.286;2023-05-10T06:36:33;14.80;99.90
5461;DHT22;2753;49.196;8.286;2023-05-10T06:38:59;14.80;99.90
5461;DHT22;2753;49.196;8.286;2023-05-10T06:41:25;14.80;99.90
5461;DHT22;2753;49.196;8.286;2023-05-10T06:43:51;14.80;99.90
5461;DHT22;2753;49.196;8.286;2023-05-10T06:46:16;14.70;99.90
5461;DHT22;2753;49.196;8.286;2023-05-10T06:48:42;14.70;99.90
5461;DHT22;2753;49.196;8.286;2023-05-10T06:51:07;14.80;99.90
5461;DHT22;2753;49.196;8.286;2023-05-10T06:53:33;14.80;99.90
5461;DHT22;2753;49.196;8.286;2023-05-10T06:55:59;14.80;99.90
5461;DHT22;2753;49.196;8.286;2023-05-10T06:58:24;14.90;99.90
5461;DHT22;2753;49.196;8.286;2023-05-10T07:00:50;15.00;99.90
5461;DHT22;2753;49.196;8.286;2023-05-10T07:03:16;15.10;99.90
5461;DHT22;2753;49.196;8.286;2023-05-10T07:05:41;15.10;99.90
5461;DHT22;2753;49.196;8.286;2023-05-10T07:08:07;15.10;99.90
5461;DHT22;2753;49.196;8.286;2023-05-10T07:10:33;15.10;99.90
5461;DHT22;2753;49.196;8.286;2023-05-10T07:12:59;15.10;99.90
5461;DHT22;2753;49.196;8.286;2023-05-10T07:15:26;15.10;99.90
5461;DHT22;2753;49.196;8.286;2023-05-10T07:17:52;15.10;99.90
5461;DHT22;2753;49.196;8.286;2023-05-10T07:20:18;15.20;99.90
5461;DHT22;2753;49.196;8.286;2023-05-10T07:22:43;15.20;99.90
5461;DHT22;2753;49.196;8.286;2023-05-10T07:25:09;15.20;99.90
5461;DHT22;2753;49.196;8.286;2023-05-10T07:27:36;15.30;99.90
5461;DHT22;2753;49.196;8.286;2023-05-10T07:30:01;15.40;99.90
5461;DHT22;2753;49.196;8.286;2023-05-10T07:32:27;15.60;99.90
5461;DHT22;2753;49.196;8.286;2023-05-10T07:34:53;15.60;99.90
5461;DHT22;2753;49.196;8.286;2023-05-10T07:37:19;15.70;99.90
5461;DHT22;2753;49.196;8.286;2023-05-10T07:39:44;15.70;99.90
5461;DHT22;2753;49.196;8.286;2023-05-10T07:42:10;15.80;99.90
5461;DHT22;2753;49.196;8.286;2023-05-10T07:44:36;15.70;99.90
5461;DHT22;2753;49.196;8.286;2023-05-10T07:47:01;15.70;99.90
5461;DHT22;2753;49.196;8.286;2023-05-10T07:49:27;15.70;99.90
5461;DHT22;2753;49.196;8.286;2023-05-10T07:51:53;15.70;99.90
5461;DHT22;2753;49.196;8.286;2023-05-10T07:54:18;15.80;99.90
5461;DHT22;2753;49.196;8.286;2023-05-10T07:56:44;15.80;99.90
5461;DHT22;2753;49.196;8.286;2023-05-10T07:59:16;15.80;99.90
5461;DHT22;2753;49.196;8.286;2023-05-10T08:01:43;15.80;99.90
5461;DHT22;2753;49.196;8.286;2023-05-10T08:04:09;15.70;99.90
5461;DHT22;2753;49.196;8.286;2023-05-10T08:06:35;15.70;99.90
5461;DHT22;2753;49.196;8.286;2023-05-10T08:09:00;15.70;99.90
5461;DHT22;2753;49.196;8.286;2023-05-10T08:11:26;15.80;99.90
5461;DHT22;2753;49.196;8.286;2023-05-10T08:13:53;15.80;99.90
5461;DHT22;2753;49.196;8.286;2023-05-10T08:16:19;15.70;99.90
5461;DHT22;2753;49.196;8.286;2023-05-10T08:18:46;15.80;99.90
5461;DHT22;2753;49.196;8.286;2023-05-10T08:21:13;15.80;99.90
5461;DHT22;2753;49.196;8.286;2023-05-10T08:23:39;15.80;99.90
5461;DHT22;2753;49.196;8.286;2023-05-10T08:26:05;15.80;99.90
5461;DHT22;2753;49.196;8.286;2023-05-10T08:28:31;15.90;99.90
5461;DHT22;2753;49.196;8.286;2023-05-10T08:30:56;15.80;99.90
5461;DHT22;2753;49.196;8.286;2023-05-10T08:33:22;15.80;99.90
5461;DHT22;2753;49.196;8.286;2023-05-10T08:35:48;15.80;99.90
5461;DHT22;2753;49.196;8.286;2023-05-10T08:38:13;15.80;99.90
5461;DHT22;2753;49.196;8.286;2023-05-10T08:40:42;15.80;99.90
5461;DHT22;2753;49.196;8.286;2023-05-10T08:43:09;16.00;99.90
5461;DHT22;2753;49.196;8.286;2023-05-10T08:45:40;16.30;99.90
5461;DHT22;2753;49.196;8.286;2023-05-10T08:48:08;16.30;99.90
5461;DHT22;2753;49.196;8.286;2023-05-10T08:50:36;16.40;99.90
5461;DHT22;2753;49.196;8.286;2023-05-10T08:53:04;16.40;99.90
5461;DHT22;2753;49.196;8.286;2023-05-10T08:55:32;16.40;99.90
5461;DHT22;2753;49.196;8.286;2023-05-10T08:57:58;16.30;99.90
5461;DHT22;2753;49.196;8.286;2023-05-10T09:00:25;16.20;99.90
5461;DHT22;2753;49.196;8.286;2023-05-10T09:02:51;16.20;99.90
5461;DHT22;2753;49.196;8.286;2023-05-10T09:05:17;16.20;99.90
5461;DHT22;2753;49.196;8.286;2023-05-10T09:07:43;16.30;99.90
5461;DHT22;2753;49.196;8.286;2023-05-10T09:10:11;16.30;99.90
5461;DHT22;2753;49.196;8.286;2023-05-10T09:12:37;16.30;99.90
5461;DHT22;2753;49.196;8.286;2023-05-10T09:15:04;16.30;99.90
5461;DHT22;2753;49.196;8.286;2023-05-10T09:17:30;16.40;99.90
5461;DHT22;2753;49.196;8.286;2023-05-10T09:20:04;16.40;99.90
5461;DHT22;2753;49.196;8.286;2023-05-10T09:22:33;16.30;99.90
5461;DHT22;2753;49.196;8.286;2023-05-10T09:25:10;16.30;99.90
5461;DHT22;2753;49.196;8.286;2023-05-10T09:27:38;16.30;99.90
5461;DHT22;2753;49.196;8.286;2023-05-10T09:30:04;16.40;99.90
5461;DHT22;2753;49.196;8.286;2023-05-10T09:32:41;16.40;99.90
5461;DHT22;2753;49.196;8.286;2023-05-10T09:35:18;16.50;99.90
5461;DHT22;2753;49.196;8.286;2023-05-10T09:37:50;16.50;99.90
5461;DHT22;2753;49.196;8.286;2023-05-10T09:40:21;16.40;99.90
5461;DHT22;2753;49.196;8.286;2023-05-10T09:45:26;16.40;99.90
5461;DHT22;2753;49.196;8.286;2023-05-10T09:47:52;16.30;99.90
5461;DHT22;2753;49.196;8.286;2023-05-10T09:50:19;16.40;99.90
5461;DHT22;2753;49.196;8.286;2023-05-10T09:53:00;16.40;99.90
5461;DHT22;2753;49.196;8.286;2023-05-10T09:58:05;16.70;99.90
5461;DHT22;2753;49.196;8.286;2023-05-10T10:00:45;16.70;99.90
5461;DHT22;2753;49.196;8.286;2023-05-10T10:03:20;16.70;99.90
5461;DHT22;2753;49.196;8.286;2023-05-10T10:05:47;16.70;99.90
5461;DHT22;2753;49.196;8.286;2023-05-10T10:08:13;16.70;99.90
5461;DHT22;2753;49.196;8.286;2023-05-10T10:10:40;16.80;99.90
5461;DHT22;2753;49.196;8.286;2023-05-10T10:13:07;16.90;99.90
5461;DHT22;2753;49.196;8.286;2023-05-10T10:15:34;16.90;99.90
5461;DHT22;2753;49.196;8.286;2023-05-10T10:18:00;17.00;99.90
5461;DHT22;2753;49.196;8.286;2023-05-10T10:20:26;17.00;99.90
5461;DHT22;2753;49.196;8.286;2023-05-10T10:22:52;17.00;99.90
5461;DHT22;2753;49.196;8.286;2023-05-10T10:25:20;17.10;99.90
5461;DHT22;2753;49.196;8.286;2023-05-10T10:30:24;17.30;99.90
5461;DHT22;2753;49.196;8.286;2023-05-10T10:35:39;17.50;99.90
5461;DHT22;2753;49.196;8.286;2023-05-10T10:38:08;17.50;99.90
5461;DHT22;2753;49.196;8.286;2023-05-10T10:40:34;17.50;99.90
5461;DHT22;2753;49.196;8.286;2023-05-10T10:43:25;17.60;99.90
5461;DHT22;2753;49.196;8.286;2023-05-10T10:46:11;17.70;99.90
5461;DHT22;2753;49.196;8.286;2023-05-10T10:48:38;17.70;99.60
5461;DHT22;2753;49.196;8.286;2023-05-10T10:51:03;17.70;99.90
5461;DHT22;2753;49.196;8.286;2023-05-10T10:53:29;17.70;99.80
5461;DHT22;2753;49.196;8.286;2023-05-10T10:56:09;17.60;99.80
5461;DHT22;2753;49.196;8.286;2023-05-10T10:58:36;17.50;99.90
5461;DHT22;2753;49.196;8.286;2023-05-10T11:03:36;17.30;99.90
5461;DHT22;2753;49.196;8.286;2023-05-10T11:06:02;17.20;99.90
5461;DHT22;2753;49.196;8.286;2023-05-10T11:08:30;17.20;99.90
5461;DHT22;2753;49.196;8.286;2023-05-10T11:13:43;17.10;99.90
5461;DHT22;2753;49.196;8.286;2023-05-10T11:19:02;17.00;99.80
5461;DHT22;2753;49.196;8.286;2023-05-10T11:21:29;17.00;99.50
5461;DHT22;2753;49.196;8.286;2023-05-10T11:23:57;16.90;99.20
5461;DHT22;2753;49.196;8.286;2023-05-10T11:26:34;17.10;99.10
5461;DHT22;2753;49.196;8.286;2023-05-10T11:29:00;17.10;99.10
5461;DHT22;2753;49.196;8.286;2023-05-10T11:31:27;17.00;98.30
5461;DHT22;2753;49.196;8.286;2023-05-10T11:33:58;17.00;98.30
5461;DHT22;2753;49.196;8.286;2023-05-10T11:36:27;17.10;98.90
5461;DHT22;2753;49.196;8.286;2023-05-10T11:38:54;17.10;98.30
5461;DHT22;2753;49.196;8.286;2023-05-10T11:41:22;17.00;98.00
5461;DHT22;2753;49.196;8.286;2023-05-10T11:43:55;17.10;98.20
5461;DHT22;2753;49.196;8.286;2023-05-10T11:46:24;17.10;97.70
5461;DHT22;2753;49.196;8.286;2023-05-10T11:48:53;17.20;97.60
5461;DHT22;2753;49.196;8.286;2023-05-10T11:51:23;17.20;97.40
5461;DHT22;2753;49.196;8.286;2023-05-10T11:53:54;17.30;97.10
5461;DHT22;2753;49.196;8.286;2023-05-10T11:56:20;17.40;97.40
5461;DHT22;2753;49.196;8.286;2023-05-10T11:58:55;17.50;97.00
5461;DHT22;2753;49.196;8.286;2023-05-10T12:01:21;17.50;97.10
5461;DHT22;2753;49.196;8.286;2023-05-10T12:03:49;17.60;96.70
5461;DHT22;2753;49.196;8.286;2023-05-10T12:06:15;17.60;96.40
5461;DHT22;2753;49.196;8.286;2023-05-10T12:08:45;17.70;96.30
5461;DHT22;2753;49.196;8.286;2023-05-10T12:11:12;17.70;96.60
5461;DHT22;2753;49.196;8.286;2023-05-10T12:13:43;17.70;95.70
5461;DHT22;2753;49.196;8.286;2023-05-10T12:16:20;17.60;95.90
5461;DHT22;2753;49.196;8.286;2023-05-10T12:18:51;17.70;96.60
5461;DHT22;2753;49.196;8.286;2023-05-10T12:21:17;17.60;95.40
5461;DHT22;2753;49.196;8.286;2023-05-10T12:23:45;17.70;95.30
5461;DHT22;2753;49.196;8.286;2023-05-10T12:26:11;17.70;95.70
5461;DHT22;2753;49.196;8.286;2023-05-10T12:28:37;17.70;95.70
5461;DHT22;2753;49.196;8.286;2023-05-10T12:31:05;17.70;94.20
5461;DHT22;2753;49.196;8.286;2023-05-10T12:33:44;17.80;94.70
5461;DHT22;2753;49.196;8.286;2023-05-10T12:36:12;17.80;94.70
5461;DHT22;2753;49.196;8.286;2023-05-10T12:38:39;17.80;93.60
5461;DHT22;2753;49.196;8.286;2023-05-10T12:41:12;17.80;93.40
5461;DHT22;2753;49.196;8.286;2023-05-10T12:43:38;17.90;93.70
5461;DHT22;2753;49.196;8.286;2023-05-10T12:46:08;17.90;94.10
5461;DHT22;2753;49.196;8.286;2023-05-10T12:48:35;17.90;94.10
5461;DHT22;2753;49.196;8.286;2023-05-10T12:51:02;18.00;94.20
5461;DHT22;2753;49.196;8.286;2023-05-10T12:53:28;18.00;94.00
5461;DHT22;2753;49.196;8.286;2023-05-10T12:55:54;18.00;93.60
5461;DHT22;2753;49.196;8.286;2023-05-10T12:58:20;18.00;93.80
5461;DHT22;2753;49.196;8.286;2023-05-10T13:00:45;18.00;93.10
5461;DHT22;2753;49.196;8.286;2023-05-10T13:03:11;18.10;93.70
5461;DHT22;2753;49.196;8.286;2023-05-10T13:05:37;18.00;92.60
5461;DHT22;2753;49.196;8.286;2023-05-10T13:08:03;18.00;93.30
5461;DHT22;2753;49.196;8.286;2023-05-10T13:10:30;18.10;93.50
5461;DHT22;2753;49.196;8.286;2023-05-10T13:12:56;18.10;92.90
5461;DHT22;2753;49.196;8.286;2023-05-10T13:15:22;18.20;93.30
5461;DHT22;2753;49.196;8.286;2023-05-10T13:17:48;18.20;92.70
5461;DHT22;2753;49.196;8.286;2023-05-10T13:20:14;18.20;93.10
5461;DHT22;2753;49.196;8.286;2023-05-10T13:22:41;18.70;93.20
5461;DHT22;2753;49.196;8.286;2023-05-10T13:25:07;18.20;92.90
5461;DHT22;2753;49.196;8.286;2023-05-10T13:27:33;18.20;91.90
5461;DHT22;2753;49.196;8.286;2023-05-10T13:29:58;18.20;92.00
5461;DHT22;2753;49.196;8.286;2023-05-10T13:32:25;18.30;92.10
5461;DHT22;2753;49.196;8.286;2023-05-10T13:34:55;18.40;92.10
5461;DHT22;2753;49.196;8.286;2023-05-10T13:37:21;18.40;92.30
5461;DHT22;2753;49.196;8.286;2023-05-10T13:39:50;18.40;92.40
5461;DHT22;2753;49.196;8.286;2023-05-10T13:42:22;18.40;92.00
5461;DHT22;2753;49.196;8.286;2023-05-10T13:44:49;18.50;91.60
5461;DHT22;2753;49.196;8.286;2023-05-10T13:47:15;18.50;91.90
5461;DHT22;2753;49.196;8.286;2023-05-10T13:49:41;18.50;91.80
5461;DHT22;2753;49.196;8.286;2023-05-10T13:52:07;18.60;91.80
5461;DHT22;2753;49.196;8.286;2023-05-10T13:54:41;18.60;92.10
5461;DHT22;2753;49.196;8.286;2023-05-10T13:57:11;18.60;91.70
5461;DHT22;2753;49.196;8.286;2023-05-10T13:59:38;18.60;91.30
5461;DHT22;2753;49.196;8.286;2023-05-10T14:02:03;18.60;91.50
5461;DHT22;2753;49.196;8.286;2023-05-10T14:04:29;18.60;91.30
5461;DHT22;2753;49.196;8.286;2023-05-10T14:06:55;18.70;91.40
5461;DHT22;2753;49.196;8.286;2023-05-10T14:09:21;18.70;90.60
5461;DHT22;2753;49.196;8.286;2023-05-10T14:11:47;18.70;91.20
5461;DHT22;2753;49.196;8.286;2023-05-10T14:14:12;18.70;91.10
5461;DHT22;2753;49.196;8.286;2023-05-10T14:16:42;18.80;90.70
5461;DHT22;2753;49.196;8.286;2023-05-10T14:19:09;18.80;90.90
5461;DHT22;2753;49.196;8.286;2023-05-10T14:21:35;18.80;90.50
5461;DHT22;2753;49.196;8.286;2023-05-10T14:24:00;18.80;90.60
5461;DHT22;2753;49.196;8.286;2023-05-10T14:26:29;18.90;90.50
5461;DHT22;2753;49.196;8.286;2023-05-10T14:28:55;18.90;89.40
5461;DHT22;2753;49.196;8.286;2023-05-10T14:31:20;18.80;88.60
5461;DHT22;2753;49.196;8.286;2023-05-10T14:33:47;18.90;88.50
5461;DHT22;2753;49.196;8.286;2023-05-10T14:36:13;18.90;87.90
5461;DHT22;2753;49.196;8.286;2023-05-10T14:38:39;18.90;88.20
5461;DHT22;2753;49.196;8.286;2023-05-10T14:41:05;18.90;88.60
5461;DHT22;2753;49.196;8.286;2023-05-10T14:43:31;18.90;89.40
5461;DHT22;2753;49.196;8.286;2023-05-10T14:45:57;18.90;88.40
5461;DHT22;2753;49.196;8.286;2023-05-10T14:48:22;18.90;88.70
5461;DHT22;2753;49.196;8.286;2023-05-10T14:50:48;19.00;87.30
5461;DHT22;2753;49.196;8.286;2023-05-10T14:53:15;19.00;88.80
5461;DHT22;2753;49.196;8.286;2023-05-10T14:55:41;19.00;88.50
5461;DHT22;2753;49.196;8.286;2023-05-10T14:58:06;19.10;89.00
5461;DHT22;2753;49.196;8.286;2023-05-10T15:00:32;19.20;88.90
5461;DHT22;2753;49.196;8.286;2023-05-10T15:02:58;19.20;88.80
5461;DHT22;2753;49.196;8.286;2023-05-10T15:05:23;19.20;87.60
5461;DHT22;2753;49.196;8.286;2023-05-10T15:07:49;19.10;88.10
5461;DHT22;2753;49.196;8.286;2023-05-10T15:10:15;19.10;87.00
5461;DHT22;2753;49.196;8.286;2023-05-10T15:12:41;19.10;86.00
5461;DHT22;2753;49.196;8.286;2023-05-10T15:15:07;19.10;87.80
5461;DHT22;2753;49.196;8.286;2023-05-10T15:17:33;19.10;88.40
5461;DHT22;2753;49.196;8.286;2023-05-10T15:19:59;19.00;87.40
5461;DHT22;2753;49.196;8.286;2023-05-10T15:22:25;19.00;87.20
5461;DHT22;2753;49.196;8.286;2023-05-10T15:24:51;18.90;88.20
5461;DHT22;2753;49.196;8.286;2023-05-10T15:27:16;18.90;87.90
5461;DHT22;2753;49.196;8.286;2023-05-10T15:29:42;18.90;87.10
5461;DHT22;2753;49.196;8.286;2023-05-10T15:32:08;18.80;88.20
5461;DHT22;2753;49.196;8.286;2023-05-10T15:34:33;18.80;89.20
5461;DHT22;2753;49.196;8.286;2023-05-10T15:36:59;18.80;89.90
5461;DHT22;2753;49.196;8.286;2023-05-10T15:39:25;18.70;90.50
5461;DHT22;2753;49.196;8.286;2023-05-10T15:41:51;18.70;90.50
5461;DHT22;2753;49.196;8.286;2023-05-10T15:44:16;18.70;90.90
5461;DHT22;2753;49.196;8.286;2023-05-10T15:46:43;18.70;91.10
5461;DHT22;2753;49.196;8.286;2023-05-10T15:49:09;18.70;91.30
5461;DHT22;2753;49.196;8.286;2023-05-10T15:51:35;18.70;91.30
5461;DHT22;2753;49.196;8.286;2023-05-10T15:54:00;18.70;91.30
5461;DHT22;2753;49.196;8.286;2023-05-10T15:56:31;18.70;91.60
5461;DHT22;2753;49.196;8.286;2023-05-10T15:58:58;18.70;91.50
5461;DHT22;2753;49.196;8.286;2023-05-10T16:01:23;18.60;91.70
5461;DHT22;2753;49.196;8.286;2023-05-10T16:03:49;18.40;92.10
5461;DHT22;2753;49.196;8.286;2023-05-10T16:06:15;18.40;92.50
5461;DHT22;2753;49.196;8.286;2023-05-10T16:08:40;18.30;92.40
5461;DHT22;2753;49.196;8.286;2023-05-10T16:11:07;18.30;92.80
5461;DHT22;2753;49.196;8.286;2023-05-10T16:13:33;18.20;92.40
5461;DHT22;2753;49.196;8.286;2023-05-10T16:15:59;18.20;92.80
5461;DHT22;2753;49.196;8.286;2023-05-10T16:18:24;18.10;92.70
5461;DHT22;2753;49.196;8.286;2023-05-10T16:20:51;18.00;92.90
5461;DHT22;2753;49.196;8.286;2023-05-10T16:23:17;18.20;92.90
5461;DHT22;2753;49.196;8.286;2023-05-10T16:25:43;18.30;93.00
5461;DHT22;2753;49.196;8.286;2023-05-10T16:28:09;18.30;92.70
5461;DHT22;2753;49.196;8.286;2023-05-10T16:30:35;18.30;92.80
5461;DHT22;2753;49.196;8.286;2023-05-10T16:33:01;18.30;92.70
5461;DHT22;2753;49.196;8.286;2023-05-10T16:35:29;18.30;92.10
5461;DHT22;2753;49.196;8.286;2023-05-10T16:37:56;18.30;91.90
5461;DHT22;2753;49.196;8.286;2023-05-10T16:40:21;18.30;92.30
5461;DHT22;2753;49.196;8.286;2023-05-10T16:42:48;18.30;92.60
5461;DHT22;2753;49.196;8.286;2023-05-10T16:45:13;18.30;92.70
5461;DHT22;2753;49.196;8.286;2023-05-10T16:47:40;18.20;93.00